Time;durP1;ratioP1;P1;durP2;ratioP2;P2;SDS_P1;SDS_P2;PMS_P1;PMS_P2;Temp;Humidity;BMP_temperature;BMP_pressure;BME280_temperature;BME280_humidity;BME280_pressure;Samples;Min_cycle;Max_cycle;Signal;HPM_P1;HPM_P2
2021/07/10 00:01:15;;;;;;;16.43;9.50;;;17.00;1.00;;;;;;5021258;28;20542;-74
2021/07/10 00:03:40;;;;;;;13.80;10.60;;;16.90;1.00;;;;;;5024226;28;20211;-74
2021/07/10 00:06:07;;;;;;;11.17;10.07;;;16.90;1.00;;;;;;5038809;28;20472;-74
2021/07/10 00:08:32;;;;;;;12.20;10.90;;;17.00;1.00;;;;;;5019164;28;21113;-74
2021/07/10 00:10:58;;;;;;;11.10;9.87;;;16.90;1.00;;;;;;5003662;28;20485;-74
2021/07/10 00:13:24;;;;;;;14.40;10.10;;;16.90;1.00;;;;;;5014642;28;20692;-74
2021/07/10 00:15:50;;;;;;;13.33;10.40;;;16.90;1.00;;;;;;5026194;28;20608;-73
2021/07/10 00:18:16;;;;;;;11.90;10.70;;;16.80;1.00;;;;;;5024735;28;20477;-74
2021/07/10 00:20:42;;;;;;;14.33;10.50;;;16.80;1.00;;;;;;5031660;28;20466;-73
2021/07/10 00:23:08;;;;;;;13.43;10.30;;;16.80;1.00;;;;;;5022167;28;20644;-74
2021/07/10 00:25:34;;;;;;;11.20;10.00;;;16.80;1.00;;;;;;5025656;28;20459;-73
2021/07/10 00:27:59;;;;;;;11.63;10.50;;;16.80;1.00;;;;;;5027312;28;20290;-74
2021/07/10 00:30:25;;;;;;;11.33;9.60;;;16.70;1.00;;;;;;5023162;28;20235;-73
2021/07/10 00:32:51;;;;;;;10.67;9.53;;;16.80;1.00;;;;;;5029226;28;20188;-74
2021/07/10 00:35:17;;;;;;;11.00;9.90;;;16.70;1.00;;;;;;5028930;28;20203;-73
2021/07/10 00:37:43;;;;;;;15.00;10.60;;;16.80;1.00;;;;;;5025408;28;20442;-73
2021/07/10 00:40:10;;;;;;;13.37;10.80;;;16.60;1.00;;;;;;5027471;28;20935;-73
2021/07/10 00:42:37;;;;;;;12.60;11.30;;;16.70;1.00;;;;;;5028906;28;20452;-73
2021/07/10 00:45:06;;;;;;;14.20;9.53;;;16.60;1.00;;;;;;5031122;28;20445;-73
2021/07/10 00:47:32;;;;;;;12.33;10.30;;;16.60;1.00;;;;;;5029770;28;20539;-73
2021/07/10 00:49:58;;;;;;;12.03;10.80;;;16.60;1.00;;;;;;5026911;28;20837;-74
2021/07/10 00:52:23;;;;;;;12.90;11.40;;;16.50;1.00;;;;;;5030787;28;20445;-73
2021/07/10 00:54:49;;;;;;;13.50;10.37;;;16.50;1.00;;;;;;5029029;28;20744;-73
2021/07/10 00:57:15;;;;;;;12.33;9.70;;;16.50;1.00;;;;;;5023965;28;20181;-73
2021/07/10 00:59:42;;;;;;;12.50;10.93;;;16.50;1.00;;;;;;5023958;28;20240;-73
2021/07/10 01:02:08;;;;;;;15.33;11.63;;;16.50;1.00;;;;;;5031689;28;20241;-74
2021/07/10 01:04:33;;;;;;;12.73;11.00;;;16.50;1.00;;;;;;5030465;28;21815;-73
2021/07/10 01:06:59;;;;;;;15.17;10.80;;;16.50;1.00;;;;;;5032777;28;23337;-73
2021/07/10 01:09:25;;;;;;;12.47;10.90;;;16.50;1.00;;;;;;5029322;28;20569;-74
2021/07/10 01:11:51;;;;;;;11.50;10.30;;;16.50;1.00;;;;;;5033808;28;20855;-73
2021/07/10 01:14:19;;;;;;;11.90;10.70;;;16.50;1.00;;;;;;5034626;28;21088;-74
2021/07/10 01:16:45;;;;;;;13.33;10.60;;;16.40;1.00;;;;;;5033640;28;20538;-74
2021/07/10 01:19:11;;;;;;;13.50;10.07;;;16.40;1.00;;;;;;5034412;28;20949;-73
2021/07/10 01:21:36;;;;;;;10.63;9.63;;;16.30;1.00;;;;;;5030428;28;20186;-73
2021/07/10 01:24:02;;;;;;;11.10;9.37;;;16.20;1.00;;;;;;5025177;28;20194;-73
2021/07/10 01:26:28;;;;;;;11.37;9.90;;;16.10;1.00;;;;;;5029397;28;20223;-73
2021/07/10 01:28:53;;;;;;;12.37;10.90;;;16.00;1.00;;;;;;5030887;28;20192;-73
2021/07/10 01:31:21;;;;;;;13.83;11.00;;;15.90;1.00;;;;;;5029561;28;20342;-73
2021/07/10 01:33:46;;;;;;;15.63;11.13;;;15.80;6.20;;;;;;5024622;28;20180;-73
2021/07/10 01:36:12;;;;;;;19.63;12.60;;;15.90;5.40;;;;;;5030282;28;20468;-73
2021/07/10 01:38:38;;;;;;;14.17;11.10;;;15.90;2.90;;;;;;5027803;28;20187;-73
2021/07/10 01:41:03;;;;;;;13.00;11.70;;;15.90;5.60;;;;;;5027520;28;20194;-73
2021/07/10 01:43:29;;;;;;;14.43;12.10;;;16.00;1.00;;;;;;5028780;28;20205;-73
2021/07/10 01:45:55;;;;;;;15.40;11.90;;;16.10;1.00;;;;;;5030156;28;20191;-73
2021/07/10 01:48:21;;;;;;;14.17;12.23;;;16.10;1.00;;;;;;5031562;28;20190;-73
2021/07/10 01:50:47;;;;;;;13.70;12.00;;;16.10;1.00;;;;;;5026171;28;20546;-74
2021/07/10 01:53:15;;;;;;;13.33;11.00;;;16.10;1.00;;;;;;5030565;28;20187;-73
2021/07/10 01:55:41;;;;;;;13.40;11.40;;;16.10;1.00;;;;;;5035123;28;20461;-74
2021/07/10 01:58:07;;;;;;;16.03;12.40;;;16.00;1.00;;;;;;5030978;28;20438;-73
2021/07/10 02:00:36;;;;;;;16.70;12.40;;;16.00;1.00;;;;;;5030162;28;20234;-73
2021/07/10 02:03:04;;;;;;;16.43;12.47;;;16.00;1.00;;;;;;5032136;28;20466;-73
2021/07/10 02:05:31;;;;;;;13.40;12.00;;;16.10;1.00;;;;;;5033012;28;20620;-73
2021/07/10 02:07:58;;;;;;;17.43;13.27;;;16.10;1.00;;;;;;5026829;28;20452;-74
2021/07/10 02:10:26;;;;;;;14.03;12.23;;;16.10;1.00;;;;;;5029973;28;20536;-74
2021/07/10 02:12:56;;;;;;;15.60;11.80;;;16.00;1.00;;;;;;5030594;28;20442;-74
2021/07/10 02:15:22;;;;;;;14.90;11.93;;;16.10;1.00;;;;;;5028525;28;20608;-73
2021/07/10 02:17:48;;;;;;;15.50;13.17;;;16.00;1.00;;;;;;5028797;28;20477;-73
2021/07/10 02:20:19;;;;;;;14.27;11.57;;;16.00;1.00;;;;;;5028227;28;20993;-74
2021/07/10 02:22:46;;;;;;;14.00;11.70;;;16.00;1.00;;;;;;5030420;28;20194;-74
2021/07/10 02:25:14;;;;;;;13.07;11.23;;;15.90;1.00;;;;;;5033727;28;20446;-73
2021/07/10 02:27:41;;;;;;;14.97;11.30;;;15.90;1.00;;;;;;5028244;28;20802;-73
2021/07/10 02:30:09;;;;;;;15.00;13.03;;;15.90;1.00;;;;;;5027709;28;20459;-73
2021/07/10 02:32:35;;;;;;;14.60;12.00;;;15.90;1.00;;;;;;5033835;28;20863;-73
2021/07/10 02:35:00;;;;;;;15.30;11.83;;;15.80;1.00;;;;;;5035607;28;20468;-73
2021/07/10 02:37:26;;;;;;;16.10;13.27;;;15.80;1.00;;;;;;5027877;28;20244;-73
2021/07/10 02:39:52;;;;;;;18.27;14.37;;;16.00;1.00;;;;;;5030508;28;20234;-73
2021/07/10 02:42:18;;;;;;;16.43;14.67;;;15.90;1.00;;;;;;5025967;28;20548;-74
2021/07/10 02:44:44;;;;;;;26.43;15.97;;;16.00;1.00;;;;;;5028376;28;20476;-73
2021/07/10 02:47:09;;;;;;;21.47;16.10;;;16.00;1.00;;;;;;5028976;28;20940;-73
2021/07/10 02:49:35;;;;;;;19.50;14.57;;;16.00;1.00;;;;;;5030112;28;20204;-73
2021/07/10 02:52:01;;;;;;;19.87;15.87;;;16.00;1.00;;;;;;5024325;28;20737;-73
2021/07/10 02:54:26;;;;;;;20.73;15.23;;;16.00;1.00;;;;;;5032251;28;20182;-73
2021/07/10 02:56:52;;;;;;;15.57;12.57;;;16.00;1.00;;;;;;5031376;28;20195;-73
2021/07/10 02:59:18;;;;;;;21.37;15.40;;;15.90;1.00;;;;;;5028562;28;20203;-73
2021/07/10 03:01:43;;;;;;;20.80;15.10;;;16.00;1.00;;;;;;5028717;28;21017;-73
2021/07/10 03:04:09;;;;;;;19.23;15.20;;;15.90;1.00;;;;;;5031974;28;20213;-74
2021/07/10 03:06:34;;;;;;;16.90;14.50;;;16.00;1.00;;;;;;5026719;28;21991;-74
2021/07/10 03:09:00;;;;;;;15.17;13.57;;;16.00;1.00;;;;;;5032609;28;20420;-74
2021/07/10 03:11:26;;;;;;;16.00;14.30;;;16.00;1.00;;;;;;5031270;28;20207;-73
2021/07/10 03:13:51;;;;;;;15.80;13.20;;;15.80;1.00;;;;;;5026973;28;20296;-74
2021/07/10 03:16:17;;;;;;;22.40;14.67;;;15.80;1.00;;;;;;5027194;28;20198;-74
2021/07/10 03:18:42;;;;;;;18.80;14.20;;;15.80;1.00;;;;;;5031256;28;20187;-73
2021/07/10 03:21:08;;;;;;;19.27;15.60;;;15.70;1.00;;;;;;5029260;28;20213;-74
2021/07/10 03:23:35;;;;;;;16.23;13.50;;;15.70;1.00;;;;;;5029017;28;20195;-73
2021/07/10 03:26:00;;;;;;;19.87;16.13;;;15.70;1.00;;;;;;5029183;28;20195;-74
2021/07/10 03:28:26;;;;;;;19.30;14.80;;;15.70;1.00;;;;;;5034864;28;20453;-74
2021/07/10 03:30:53;;;;;;;23.70;18.43;;;15.70;1.00;;;;;;5029384;28;20342;-74
2021/07/10 03:33:20;;;;;;;19.93;15.17;;;15.80;1.00;;;;;;5027165;28;20953;-73
2021/07/10 03:35:46;;;;;;;20.13;16.37;;;15.80;1.00;;;;;;5030506;28;20563;-74
2021/07/10 03:38:12;;;;;;;23.03;17.97;;;15.80;1.00;;;;;;5023554;28;20437;-73
2021/07/10 03:40:37;;;;;;;29.00;18.53;;;15.70;1.00;;;;;;5024242;28;21398;-74
2021/07/10 03:43:04;;;;;;;23.83;17.60;;;15.70;1.00;;;;;;5027604;28;20187;-73
2021/07/10 03:45:30;;;;;;;25.23;18.90;;;15.70;1.00;;;;;;5030640;28;20191;-73
2021/07/10 03:47:56;;;;;;;23.53;18.57;;;15.70;1.00;;;;;;5024519;28;20873;-73
2021/07/10 03:50:22;;;;;;;26.10;20.73;;;15.70;1.00;;;;;;5029012;28;20465;-74
2021/07/10 03:52:48;;;;;;;25.80;20.90;;;15.70;1.00;;;;;;5022760;28;20449;-74
2021/07/10 03:55:14;;;;;;;29.03;20.77;;;15.70;1.00;;;;;;5028191;28;20914;-74
2021/07/10 03:57:40;;;;;;;28.43;19.93;;;15.70;1.00;;;;;;5024155;28;20561;-73
2021/07/10 04:00:12;;;;;;;32.53;20.47;;;15.70;1.00;;;;;;5028457;28;20453;-74
2021/07/10 04:02:38;;;;;;;27.63;21.30;;;15.70;1.00;;;;;;5026887;28;20821;-74
2021/07/10 04:05:05;;;;;;;25.70;20.53;;;15.70;1.00;;;;;;5031330;28;20464;-74
2021/07/10 04:07:32;;;;;;;24.27;20.10;;;15.80;1.00;;;;;;5045269;28;20199;-74
2021/07/10 04:10:00;;;;;;;30.80;20.33;;;15.80;1.00;;;;;;5027238;28;20449;-74
2021/07/10 04:12:26;;;;;;;27.87;21.80;;;15.90;1.00;;;;;;5027493;28;21609;-74
2021/07/10 04:14:51;;;;;;;30.07;21.40;;;15.80;1.00;;;;;;5029739;28;20863;-74
2021/07/10 04:17:17;;;;;;;33.73;21.60;;;15.90;1.00;;;;;;5033212;28;20454;-74
2021/07/10 04:19:44;;;;;;;27.40;20.90;;;15.90;1.00;;;;;;5026385;28;20449;-74
2021/07/10 04:22:10;;;;;;;27.43;19.90;;;15.90;1.00;;;;;;5027576;28;20287;-74
2021/07/10 04:24:36;;;;;;;25.83;19.93;;;15.90;1.00;;;;;;5029734;28;20445;-74
2021/07/10 04:27:01;;;;;;;24.70;18.47;;;15.90;1.00;;;;;;5025339;28;21391;-74
2021/07/10 04:29:27;;;;;;;23.33;16.17;;;16.00;1.00;;;;;;5029512;28;20188;-74
2021/07/10 04:31:53;;;;;;;22.50;16.40;;;16.00;1.00;;;;;;5027619;28;20226;-74
2021/07/10 04:34:18;;;;;;;25.40;15.30;;;16.00;1.00;;;;;;5028270;28;20184;-74
2021/07/10 04:36:44;;;;;;;17.50;14.00;;;16.10;1.00;;;;;;5029597;28;20675;-73
2021/07/10 04:39:09;;;;;;;18.87;14.90;;;16.10;1.00;;;;;;5034504;28;20245;-74
2021/07/10 04:41:35;;;;;;;19.53;14.70;;;16.10;1.00;;;;;;5031985;28;20646;-74
2021/07/10 04:44:01;;;;;;;20.47;16.57;;;16.10;1.00;;;;;;5030824;28;20545;-74
2021/07/10 04:46:27;;;;;;;20.60;16.73;;;16.20;1.00;;;;;;5027580;28;20186;-74
2021/07/10 04:48:52;;;;;;;20.80;17.17;;;16.20;1.00;;;;;;5033147;28;20186;-74
2021/07/10 04:51:18;;;;;;;22.20;17.30;;;16.20;1.00;;;;;;5033119;28;20352;-74
2021/07/10 04:53:44;;;;;;;23.63;16.73;;;16.30;1.00;;;;;;5035177;28;20698;-74
2021/07/10 04:56:09;;;;;;;21.97;17.80;;;16.30;1.00;;;;;;5031999;28;20700;-74
2021/07/10 04:58:35;;;;;;;23.60;16.60;;;16.30;1.00;;;;;;5035981;28;20178;-74
2021/07/10 05:01:01;;;;;;;25.77;18.33;;;16.40;1.00;;;;;;5048819;28;20562;-74
2021/07/10 05:03:26;;;;;;;24.90;19.03;;;16.50;1.00;;;;;;5034226;28;20205;-74
2021/07/10 05:05:52;;;;;;;29.73;21.67;;;16.50;1.00;;;;;;5034603;28;20230;-74
2021/07/10 05:08:17;;;;;;;23.27;17.90;;;16.60;1.00;;;;;;5033527;28;20195;-73
2021/07/10 05:10:44;;;;;;;23.77;19.30;;;16.70;1.00;;;;;;5030857;28;20218;-74
2021/07/10 05:13:09;;;;;;;23.03;18.53;;;16.70;1.00;;;;;;5034625;28;20793;-74
2021/07/10 05:15:35;;;;;;;24.60;18.00;;;16.80;1.00;;;;;;5032112;28;20479;-74
2021/07/10 05:18:02;;;;;;;21.33;17.47;;;16.80;1.00;;;;;;5033737;28;20245;-73
2021/07/10 05:20:28;;;;;;;27.23;17.07;;;16.80;1.00;;;;;;5033208;28;21344;-74
2021/07/10 05:22:54;;;;;;;23.80;16.77;;;16.70;1.00;;;;;;5036780;28;20771;-74
2021/07/10 05:25:19;;;;;;;22.13;16.17;;;16.70;1.00;;;;;;5031043;28;20321;-73
2021/07/10 05:27:45;;;;;;;19.20;15.97;;;16.70;1.00;;;;;;5037957;28;20189;-74
2021/07/10 05:30:15;;;;;;;21.90;18.53;;;16.70;1.00;;;;;;5035312;28;20182;-74
2021/07/10 05:32:41;;;;;;;21.20;16.87;;;16.70;1.00;;;;;;5034122;28;20199;-74
2021/07/10 05:35:09;;;;;;;20.50;16.47;;;16.70;1.00;;;;;;5030937;28;20449;-73
2021/07/10 05:37:35;;;;;;;19.00;16.97;;;16.80;1.00;;;;;;5034166;28;20190;-74
2021/07/10 05:40:01;;;;;;;20.47;14.80;;;16.80;1.00;;;;;;5029800;28;20481;-74
2021/07/10 05:42:26;;;;;;;14.80;11.90;;;16.80;1.00;;;;;;5032016;28;20543;-73
2021/07/10 05:44:52;;;;;;;14.50;12.70;;;16.90;1.00;;;;;;5034518;28;20491;-73
2021/07/10 05:47:18;;;;;;;17.83;12.40;;;17.10;1.00;;;;;;5029926;28;20180;-74
2021/07/10 05:49:43;;;;;;;14.27;12.63;;;17.20;1.00;;;;;;5031039;28;20187;-74
2021/07/10 05:52:09;;;;;;;15.17;12.40;;;17.20;1.00;;;;;;5029033;28;20203;-74
2021/07/10 05:54:35;;;;;;;14.83;13.30;;;17.30;1.00;;;;;;5032915;28;20200;-74
2021/07/10 05:57:00;;;;;;;14.30;12.37;;;17.40;1.00;;;;;;5032519;28;20233;-74
2021/07/10 05:59:26;;;;;;;17.83;14.50;;;17.60;1.00;;;;;;5032119;28;20342;-74
2021/07/10 06:01:52;;;;;;;20.93;14.73;;;17.60;1.00;;;;;;5030799;28;20361;-74
2021/07/10 06:04:17;;;;;;;15.07;13.03;;;17.70;1.00;;;;;;5026714;28;20302;-74
2021/07/10 06:06:44;;;;;;;19.10;15.47;;;17.70;1.00;;;;;;5030452;28;20203;-74
2021/07/10 06:09:10;;;;;;;17.40;13.80;;;17.80;1.00;;;;;;5034231;28;20183;-73
2021/07/10 06:11:35;;;;;;;19.17;14.10;;;17.90;1.00;;;;;;5030065;28;21009;-74
2021/07/10 06:14:07;;;;;;;14.53;13.03;;;17.90;1.00;;;;;;5032611;28;20547;-74
2021/07/10 06:16:34;;;;;;;16.87;13.03;;;18.10;1.00;;;;;;5028135;28;20224;-75
2021/07/10 06:19:00;;;;;;;16.17;13.57;;;18.10;1.00;;;;;;5028819;28;20446;-74
2021/07/10 06:21:25;;;;;;;14.63;12.10;;;18.30;1.00;;;;;;5030433;28;20469;-74
2021/07/10 06:23:53;;;;;;;14.43;11.63;;;18.30;1.00;;;;;;5028291;28;20249;-74
2021/07/10 06:26:19;;;;;;;13.80;11.17;;;18.30;1.00;;;;;;5026871;28;20624;-74
2021/07/10 06:28:47;;;;;;;13.90;10.90;;;18.30;1.00;;;;;;5031605;28;20437;-74
2021/07/10 06:31:12;;;;;;;13.43;11.03;;;18.40;1.00;;;;;;5029768;28;20540;-73
2021/07/10 06:33:38;;;;;;;15.17;10.50;;;18.40;1.00;;;;;;5027393;28;20538;-74
2021/07/10 06:36:04;;;;;;;14.93;12.50;;;18.40;1.00;;;;;;5028857;28;20585;-74
2021/07/10 06:38:29;;;;;;;14.40;11.23;;;18.40;1.00;;;;;;5028169;28;20287;-74
2021/07/10 06:40:55;;;;;;;13.53;12.20;;;18.40;1.00;;;;;;5030325;28;20202;-74
2021/07/10 06:43:21;;;;;;;16.80;11.40;;;18.40;1.00;;;;;;5029423;28;20192;-74
2021/07/10 06:45:46;;;;;;;15.13;10.20;;;18.50;1.00;;;;;;5027785;28;20184;-74
2021/07/10 06:48:12;;;;;;;12.60;10.33;;;18.50;1.00;;;;;;5029439;28;20183;-74
2021/07/10 06:50:38;;;;;;;11.50;10.20;;;18.50;1.00;;;;;;5029434;28;20214;-74
2021/07/10 06:53:03;;;;;;;12.40;10.57;;;18.50;1.00;;;;;;5028305;28;20274;-74
2021/07/10 06:55:29;;;;;;;12.93;9.93;;;18.50;1.00;;;;;;5025050;28;20210;-74
2021/07/10 06:57:54;;;;;;;12.83;9.43;;;18.60;1.00;;;;;;5025212;28;20624;-74
2021/07/10 07:00:20;;;;;;;11.03;8.80;;;18.60;1.00;;;;;;5025678;28;20184;-74
2021/07/10 07:02:46;;;;;;;10.17;8.23;;;18.70;1.00;;;;;;5024961;28;20188;-74
2021/07/10 07:05:12;;;;;;;12.97;8.57;;;18.80;1.00;;;;;;5029284;28;20199;-74
2021/07/10 07:07:38;;;;;;;11.27;8.00;;;18.80;1.00;;;;;;5027389;28;20198;-74
2021/07/10 07:10:06;;;;;;;10.90;9.00;;;18.80;1.00;;;;;;5034873;28;20516;-74
2021/07/10 07:12:33;;;;;;;11.73;8.33;;;18.80;1.00;;;;;;5035143;28;20652;-74
2021/07/10 07:14:59;;;;;;;10.00;8.20;;;18.90;1.00;;;;;;5039574;28;20451;-75
2021/07/10 07:17:24;;;;;;;10.53;8.07;;;18.90;1.00;;;;;;5027997;28;20861;-74
2021/07/10 07:19:50;;;;;;;17.87;10.70;;;18.90;1.00;;;;;;5039223;28;20196;-75
2021/07/10 07:22:16;;;;;;;10.47;9.17;;;18.90;1.00;;;;;;5040158;28;20198;-73
2021/07/10 07:24:41;;;;;;;13.00;10.93;;;19.00;1.00;;;;;;5033437;28;20180;-74
2021/07/10 07:27:07;;;;;;;12.00;10.27;;;18.90;1.00;;;;;;5041792;28;20700;-74
2021/07/10 07:29:33;;;;;;;15.93;11.10;;;19.00;1.00;;;;;;5035137;28;20278;-74
2021/07/10 07:31:58;;;;;;;15.50;10.30;;;19.00;1.00;;;;;;5037629;28;20218;-74
2021/07/10 07:34:24;;;;;;;12.40;9.53;;;19.00;1.00;;;;;;5036451;28;20184;-74
2021/07/10 07:36:50;;;;;;;13.60;10.70;;;19.10;1.00;;;;;;5039880;28;20673;-74
2021/07/10 07:39:16;;;;;;;13.00;9.63;;;19.10;1.00;;;;;;5041525;28;20574;-73
2021/07/10 07:41:42;;;;;;;17.80;11.07;;;19.10;1.00;;;;;;5028904;28;20191;-73
2021/07/10 07:44:07;;;;;;;10.20;8.87;;;19.10;1.00;;;;;;5039819;28;20468;-74
2021/07/10 07:46:34;;;;;;;14.63;10.00;;;19.20;1.00;;;;;;5036163;28;20265;-74
2021/07/10 07:48:59;;;;;;;11.83;10.07;;;19.30;1.00;;;;;;5033567;28;20729;-74
2021/07/10 07:51:25;;;;;;;16.47;11.00;;;19.30;1.00;;;;;;5032785;28;20479;-74
2021/07/10 07:53:51;;;;;;;13.17;9.90;;;19.40;1.00;;;;;;5035973;28;20214;-74
2021/07/10 07:56:17;;;;;;;11.93;9.10;;;19.50;1.00;;;;;;5032828;28;20206;-74
2021/07/10 07:58:44;;;;;;;13.40;10.07;;;19.60;1.00;;;;;;5036381;28;21070;-74
2021/07/10 08:01:10;;;;;;;14.90;9.50;;;19.80;1.00;;;;;;5030264;28;20195;-74
2021/07/10 08:03:36;;;;;;;14.33;8.87;;;19.90;1.00;;;;;;5032443;28;20465;-74
2021/07/10 08:06:03;;;;;;;9.90;8.80;;;19.90;1.00;;;;;;5035608;28;20531;-74
2021/07/10 08:08:29;;;;;;;10.63;9.40;;;19.80;1.00;;;;;;5033678;28;20849;-74
2021/07/10 08:10:56;;;;;;;9.67;8.67;;;19.70;1.00;;;;;;5034043;28;20477;-74
2021/07/10 08:13:21;;;;;;;14.63;9.00;;;19.80;1.00;;;;;;5034294;28;20556;-73
2021/07/10 08:15:47;;;;;;;11.70;8.77;;;19.90;1.00;;;;;;5036311;28;20510;-74
2021/07/10 08:18:13;;;;;;;10.53;9.23;;;20.00;1.00;;;;;;5035832;28;20197;-73
2021/07/10 08:20:39;;;;;;;9.53;7.83;;;20.00;1.00;;;;;;5035173;28;20738;-74
2021/07/10 08:23:05;;;;;;;8.80;7.40;;;19.90;1.00;;;;;;5032463;28;20988;-74
2021/07/10 08:25:32;;;;;;;9.43;8.23;;;20.00;1.00;;;;;;5028867;28;20214;-74
2021/07/10 08:27:58;;;;;;;10.97;7.80;;;20.00;1.00;;;;;;5033524;28;20480;-74
2021/07/10 08:30:23;;;;;;;10.60;7.77;;;20.10;1.00;;;;;;5028504;28;20834;-74
2021/07/10 08:32:50;;;;;;;11.47;7.77;;;20.10;1.00;;;;;;5031509;28;20456;-73
2021/07/10 08:35:17;;;;;;;15.73;9.70;;;20.00;1.00;;;;;;5028544;28;20250;-73
2021/07/10 08:37:43;;;;;;;15.60;8.70;;;20.00;1.00;;;;;;5034122;28;20464;-73
2021/07/10 08:40:10;;;;;;;10.80;8.57;;;20.00;1.00;;;;;;5031919;28;20838;-74
2021/07/10 08:42:35;;;;;;;9.33;8.23;;;20.10;1.00;;;;;;5028992;28;20195;-74
2021/07/10 08:45:05;;;;;;;13.07;8.90;;;20.20;1.00;;;;;;5032022;28;20535;-75
2021/07/10 08:47:34;;;;;;;10.50;8.60;;;20.20;1.00;;;;;;5032346;28;20194;-74
2021/07/10 08:50:00;;;;;;;14.30;8.10;;;20.30;1.00;;;;;;5037672;28;20471;-74
2021/07/10 08:52:26;;;;;;;10.13;8.80;;;20.40;1.00;;;;;;5038861;28;20595;-74
2021/07/10 08:54:51;;;;;;;11.90;8.57;;;20.50;1.00;;;;;;5032979;28;20263;-74
2021/07/10 08:57:18;;;;;;;10.30;8.53;;;20.50;1.00;;;;;;5034993;28;20291;-73
2021/07/10 08:59:44;;;;;;;12.80;9.40;;;20.40;1.00;;;;;;5032798;28;20244;-74
2021/07/10 09:02:10;;;;;;;12.30;8.63;;;20.50;1.00;;;;;;5033395;28;20456;-74
2021/07/10 09:04:36;;;;;;;11.23;9.30;;;20.70;1.00;;;;;;5030153;28;20340;-74
2021/07/10 09:07:01;;;;;;;9.40;8.27;;;20.60;1.00;;;;;;5036435;28;20198;-74
2021/07/10 09:09:44;;;;;;;9.90;7.80;;;20.80;1.00;;;;;;5034590;28;20236;-74
2021/07/10 09:12:10;;;;;;;15.50;7.90;;;20.90;1.00;;;;;;5032747;28;21017;-73
2021/07/10 09:14:36;;;;;;;7.37;6.20;;;20.90;1.00;;;;;;5032749;28;20449;-74
2021/07/10 09:17:28;;;;;;;8.97;7.63;;;21.10;1.00;;;;;;5033856;28;20461;-75
2021/07/10 09:19:54;;;;;;;10.60;8.17;;;21.20;1.00;;;;;;5031421;28;20199;-74
2021/07/10 09:22:28;;;;;;;10.80;7.27;;;21.30;1.00;;;;;;5040719;28;20854;-73
2021/07/10 09:24:56;;;;;;;12.53;9.30;;;21.30;1.00;;;;;;5037612;28;20462;-74
2021/07/10 09:27:21;;;;;;;9.27;7.80;;;21.10;1.00;;;;;;5035572;28;20446;-74
2021/07/10 09:29:49;;;;;;;10.00;7.80;;;21.10;1.00;;;;;;5042033;28;20499;-74
2021/07/10 09:32:21;;;;;;;10.27;7.93;;;21.00;1.00;;;;;;5042863;28;20651;-74
2021/07/10 09:34:50;;;;;;;10.00;8.47;;;20.90;1.00;;;;;;5037423;28;20899;-74
2021/07/10 09:37:20;;;;;;;9.30;7.80;;;20.90;1.00;;;;;;5039888;28;20999;-74
2021/07/10 09:40:04;;;;;;;10.03;8.40;;;21.00;1.00;;;;;;5042688;28;20834;-74
2021/07/10 09:42:36;;;;;;;10.90;9.03;;;20.90;1.00;;;;;;5037400;28;20454;-74
2021/07/10 09:45:05;;;;;;;9.43;8.43;;;20.90;1.00;;;;;;5042013;28;21024;-74
2021/07/10 09:47:34;;;;;;;9.27;8.27;;;20.90;1.00;;;;;;5042568;28;20456;-74
2021/07/10 09:50:03;;;;;;;11.80;8.33;;;21.00;1.00;;;;;;5035253;28;20477;-73
2021/07/10 09:52:31;;;;;;;12.07;8.40;;;21.00;1.00;;;;;;5036106;28;20835;-73
2021/07/10 09:55:03;;;;;;;12.13;7.90;;;21.00;1.00;;;;;;5039405;28;20684;-73
2021/07/10 09:57:31;;;;;;;12.37;8.37;;;21.10;1.00;;;;;;5035250;28;20441;-74
2021/07/10 10:00:03;;;;;;;10.63;8.30;;;21.10;1.00;;;;;;5036641;28;20489;-74
2021/07/10 10:02:32;;;;;;;8.90;8.00;;;21.10;1.00;;;;;;5031164;28;20483;-73
2021/07/10 10:05:10;;;;;;;9.90;8.13;;;21.10;1.00;;;;;;5038485;28;20971;-73
2021/07/10 10:07:47;;;;;;;9.20;7.90;;;21.00;1.00;;;;;;5034913;28;20464;-74
2021/07/10 10:10:36;;;;;;;12.27;7.90;;;21.10;1.00;;;;;;5038336;28;20449;-74
2021/07/10 10:13:05;;;;;;;11.23;9.10;;;21.20;1.00;;;;;;5041208;28;20449;-74
2021/07/10 10:15:57;;;;;;;8.00;7.00;;;21.20;1.00;;;;;;5036914;28;20948;-74
2021/07/10 10:18:24;;;;;;;10.50;6.60;;;21.20;1.00;;;;;;5036726;28;21082;-74
2021/07/10 10:20:51;;;;;;;8.47;7.20;;;21.30;1.00;;;;;;5031876;28;20955;-74
2021/07/10 10:23:19;;;;;;;10.10;8.93;;;21.30;1.00;;;;;;5025776;28;20473;-74
2021/07/10 10:25:46;;;;;;;7.53;6.63;;;21.30;1.00;;;;;;5027019;28;20488;-73
2021/07/10 10:28:18;;;;;;;9.03;6.77;;;21.20;1.00;;;;;;5022545;28;20450;-74
2021/07/10 10:30:46;;;;;;;7.47;6.77;;;21.20;1.00;;;;;;5026330;28;20803;-72
2021/07/10 10:33:11;;;;;;;9.67;6.53;;;21.20;1.00;;;;;;5032071;28;20445;-73
2021/07/10 10:35:37;;;;;;;10.17;7.47;;;21.10;1.00;;;;;;5028664;28;20431;-73
2021/07/10 10:38:04;;;;;;;8.30;7.23;;;21.10;1.00;;;;;;5030376;28;20203;-73
2021/07/10 10:40:32;;;;;;;9.93;7.17;;;21.10;1.00;;;;;;5033229;28;21446;-74
2021/07/10 10:43:01;;;;;;;7.30;5.43;;;21.00;1.00;;;;;;5030334;28;20438;-73
2021/07/10 10:45:28;;;;;;;6.40;5.70;;;21.10;1.00;;;;;;5030525;28;20460;-73
2021/07/10 10:47:54;;;;;;;9.37;6.23;;;21.00;1.00;;;;;;5027460;28;20445;-74
2021/07/10 10:50:32;;;;;;;9.47;6.67;;;21.00;1.00;;;;;;5023069;28;20446;-73
2021/07/10 10:52:59;;;;;;;9.70;6.50;;;21.10;1.00;;;;;;5029130;28;20469;-73
2021/07/10 10:55:31;;;;;;;8.33;6.33;;;21.10;1.00;;;;;;5028665;28;21102;-74
2021/07/10 10:57:58;;;;;;;8.43;6.50;;;21.10;1.00;;;;;;5020325;28;20453;-73
2021/07/10 11:00:24;;;;;;;9.23;6.43;;;21.10;1.00;;;;;;5031729;28;20445;-74
2021/07/10 11:02:49;;;;;;;7.73;6.47;;;21.10;1.00;;;;;;5029313;28;20464;-74
2021/07/10 11:05:36;;;;;;;7.30;6.30;;;21.10;1.00;;;;;;5020007;28;20662;-74
2021/07/10 11:08:26;;;;;;;7.53;6.00;;;21.10;1.00;;;;;;5030099;28;20229;-73
2021/07/10 11:10:57;;;;;;;6.80;6.17;;;21.10;1.00;;;;;;5032279;28;20473;-74
2021/07/10 11:13:46;;;;;;;10.03;7.30;;;21.00;1.00;;;;;;5031295;28;21049;-73
2021/07/10 11:16:20;;;;;;;9.60;7.97;;;21.00;1.00;;;;;;5023617;28;20473;-74
2021/07/10 11:18:50;;;;;;;9.87;6.97;;;21.00;1.00;;;;;;5026987;28;20453;-73
2021/07/10 11:22:07;;;;;;;9.27;7.60;;;21.00;1.00;;;;;;5029318;28;20998;-74
2021/07/10 11:24:26;;;;;;;9.17;7.30;;;21.10;1.00;;;;;;5029419;28;20609;-74
2021/07/10 11:26:57;;;;;;;9.83;6.93;;;21.20;1.00;;;;;;5026558;28;20491;-73
2021/07/10 11:29:24;;;;;;;9.87;6.73;;;21.40;1.00;;;;;;5025371;28;20186;-73
2021/07/10 11:31:53;;;;;;;8.47;6.33;;;21.60;1.00;;;;;;5025029;28;20493;-74
2021/07/10 11:34:37;;;;;;;7.70;6.70;;;21.80;1.00;;;;;;5026358;28;21084;-74
2021/07/10 11:37:26;;;;;;;9.00;6.83;;;22.10;1.00;;;;;;5017509;28;20484;-74
2021/07/10 11:40:04;;;;;;;9.10;6.37;;;22.30;1.00;;;;;;5031142;28;20445;-73
2021/07/10 11:42:33;;;;;;;5.97;5.37;;;22.40;1.00;;;;;;5020036;28;20457;-74
2021/07/10 11:45:13;;;;;;;7.30;6.20;;;22.30;1.00;;;;;;5019942;28;20477;-74
2021/07/10 11:47:46;;;;;;;8.27;6.27;;;22.00;1.00;;;;;;5021714;28;20536;-74
2021/07/10 11:50:21;;;;;;;5.83;5.17;;;21.90;1.00;;;;;;5025182;28;20455;-74
2021/07/10 11:52:56;;;;;;;8.63;5.17;;;21.80;1.00;;;;;;5028239;28;20846;-74
2021/07/10 11:55:23;;;;;;;9.87;5.97;;;21.70;1.00;;;;;;5017843;28;20441;-74
2021/07/10 11:57:49;;;;;;;12.10;7.60;;;21.80;1.00;;;;;;5026492;28;20465;-74
2021/07/10 12:00:15;;;;;;;6.73;5.97;;;21.80;1.00;;;;;;5035579;28;20499;-74
2021/07/10 12:02:42;;;;;;;9.40;7.23;;;21.80;1.00;;;;;;5025268;28;20459;-74
2021/07/10 12:05:16;;;;;;;7.77;6.13;;;21.90;1.00;;;;;;5021740;28;20462;-74
2021/07/10 12:07:53;;;;;;;9.43;5.77;;;21.90;1.00;;;;;;5024804;28;20457;-74
2021/07/10 12:10:35;;;;;;;12.93;5.93;;;22.10;1.00;;;;;;5014952;28;20819;-73
2021/07/10 12:13:18;;;;;;;6.13;5.33;;;22.30;1.00;;;;;;5020755;28;20954;-73
2021/07/10 12:15:47;;;;;;;8.33;5.87;;;22.70;1.00;;;;;;5021564;28;20548;-75
2021/07/10 12:18:14;;;;;;;8.40;6.40;;;22.90;1.00;;;;;;5024311;28;20448;-74
2021/07/10 12:20:44;;;;;;;5.60;5.10;;;22.90;1.00;;;;;;5020876;28;21056;-74
2021/07/10 12:23:14;;;;;;;10.80;5.20;;;23.10;1.00;;;;;;5007939;28;20604;-73
2021/07/10 12:25:46;;;;;;;5.00;4.43;;;23.30;1.00;;;;;;5019208;28;20446;-74
2021/07/10 12:28:12;;;;;;;6.17;4.60;;;23.10;1.00;;;;;;5020464;28;20541;-74
2021/07/10 12:30:41;;;;;;;7.40;4.37;;;22.90;1.00;;;;;;5022196;28;20449;-75
2021/07/10 12:33:26;;;;;;;9.93;5.17;;;22.90;1.00;;;;;;5027628;28;20453;-74
2021/07/10 12:36:29;;;;;;;6.57;4.13;;;22.90;1.00;;;;;;5017184;28;23339;-73
2021/07/10 12:39:06;;;;;;;6.57;5.33;;;23.30;1.00;;;;;;5021088;28;20460;-74
2021/07/10 12:41:57;;;;;;;4.80;4.30;;;23.20;1.00;;;;;;5020680;28;21560;-74
2021/07/10 12:44:29;;;;;;;5.43;4.40;;;23.00;1.00;;;;;;5019091;28;20843;-74
2021/07/10 12:47:16;;;;;;;5.77;4.80;;;22.90;1.00;;;;;;5036321;28;20545;-74